sensor_id;sensor_type;location;lat;lon;timestamp;P1;durP1;ratioP1;P2;durP2;ratioP2
22223;SDS011;11281;52.194;21.006;2023-04-24T00:00:08;10.38;;;6.72;;
22223;SDS011;11281;52.194;21.006;2023-04-24T00:04:11;8.43;;;6.47;;
22223;SDS011;11281;52.194;21.006;2023-04-24T00:08:17;8.70;;;5.78;;
22223;SDS011;11281;52.194;21.006;2023-04-24T00:12:23;9.43;;;6.53;;
22223;SDS011;11281;52.194;21.006;2023-04-24T00:16:26;14.93;;;6.95;;
22223;SDS011;11281;52.194;21.006;2023-04-24T00:20:28;10.38;;;6.38;;
22223;SDS011;11281;52.194;21.006;2023-04-24T00:24:30;9.93;;;6.65;;
22223;SDS011;11281;52.194;21.006;2023-04-24T00:28:32;11.18;;;6.40;;
22223;SDS011;11281;52.194;21.006;2023-04-24T00:32:34;8.90;;;5.63;;
22223;SDS011;11281;52.194;21.006;2023-04-24T00:36:35;8.45;;;5.80;;
22223;SDS011;11281;52.194;21.006;2023-04-24T00:40:38;8.68;;;6.22;;
22223;SDS011;11281;52.194;21.006;2023-04-24T00:44:40;11.10;;;6.97;;
22223;SDS011;11281;52.194;21.006;2023-04-24T00:48:42;12.27;;;7.45;;
22223;SDS011;11281;52.194;21.006;2023-04-24T00:52:44;8.93;;;5.85;;
22223;SDS011;11281;52.194;21.006;2023-04-24T00:56:46;8.98;;;6.30;;
22223;SDS011;11281;52.194;21.006;2023-04-24T01:00:48;13.80;;;6.88;;
22223;SDS011;11281;52.194;21.006;2023-04-24T01:04:53;13.88;;;6.75;;
22223;SDS011;11281;52.194;21.006;2023-04-24T01:08:55;10.18;;;7.03;;
22223;SDS011;11281;52.194;21.006;2023-04-24T01:12:57;9.77;;;7.03;;
22223;SDS011;11281;52.194;21.006;2023-04-24T01:16:59;14.15;;;6.80;;
22223;SDS011;11281;52.194;21.006;2023-04-24T01:21:02;10.05;;;6.68;;
22223;SDS011;11281;52.194;21.006;2023-04-24T01:25:05;10.15;;;6.55;;
22223;SDS011;11281;52.194;21.006;2023-04-24T01:29:07;11.07;;;7.18;;
22223;SDS011;11281;52.194;21.006;2023-04-24T01:33:09;7.90;;;6.45;;
22223;SDS011;11281;52.194;21.006;2023-04-24T01:37:11;8.63;;;5.75;;
22223;SDS011;11281;52.194;21.006;2023-04-24T01:41:12;9.68;;;6.22;;
22223;SDS011;11281;52.194;21.006;2023-04-24T01:45:14;11.10;;;6.57;;
22223;SDS011;11281;52.194;21.006;2023-04-24T01:49:16;10.13;;;6.38;;
22223;SDS011;11281;52.194;21.006;2023-04-24T01:53:17;12.07;;;7.63;;
22223;SDS011;11281;52.194;21.006;2023-04-24T01:57:19;13.88;;;7.05;;
22223;SDS011;11281;52.194;21.006;2023-04-24T02:01:21;11.75;;;7.25;;
22223;SDS011;11281;52.194;21.006;2023-04-24T02:05:24;12.55;;;6.75;;
22223;SDS011;11281;52.194;21.006;2023-04-24T02:09:26;9.00;;;6.80;;
22223;SDS011;11281;52.194;21.006;2023-04-24T02:13:28;13.43;;;7.22;;
22223;SDS011;11281;52.194;21.006;2023-04-24T02:17:30;10.95;;;6.47;;
22223;SDS011;11281;52.194;21.006;2023-04-24T02:21:32;12.63;;;6.72;;
22223;SDS011;11281;52.194;21.006;2023-04-24T02:25:34;9.02;;;6.32;;
22223;SDS011;11281;52.194;21.006;2023-04-24T02:29:36;10.68;;;7.05;;
22223;SDS011;11281;52.194;21.006;2023-04-24T02:33:38;16.02;;;7.75;;
22223;SDS011;11281;52.194;21.006;2023-04-24T02:37:39;35.15;;;14.35;;
22223;SDS011;11281;52.194;21.006;2023-04-24T02:41:42;21.17;;;11.68;;
22223;SDS011;11281;52.194;21.006;2023-04-24T02:45:44;18.02;;;9.73;;
22223;SDS011;11281;52.194;21.006;2023-04-24T02:49:45;17.70;;;9.75;;
22223;SDS011;11281;52.194;21.006;2023-04-24T02:53:47;13.20;;;8.00;;
22223;SDS011;11281;52.194;21.006;2023-04-24T02:57:49;15.30;;;7.38;;
22223;SDS011;11281;52.194;21.006;2023-04-24T03:01:51;12.07;;;7.85;;
22223;SDS011;11281;52.194;21.006;2023-04-24T03:05:53;12.20;;;7.68;;
22223;SDS011;11281;52.194;21.006;2023-04-24T03:09:55;11.57;;;7.45;;
22223;SDS011;11281;52.194;21.006;2023-04-24T03:13:59;13.40;;;7.25;;
22223;SDS011;11281;52.194;21.006;2023-04-24T03:18:01;13.18;;;7.55;;
22223;SDS011;11281;52.194;21.006;2023-04-24T03:22:03;12.98;;;8.38;;
22223;SDS011;11281;52.194;21.006;2023-04-24T03:26:05;18.50;;;8.38;;
22223;SDS011;11281;52.194;21.006;2023-04-24T03:30:07;14.20;;;8.45;;
22223;SDS011;11281;52.194;21.006;2023-04-24T03:34:09;15.73;;;8.75;;
22223;SDS011;11281;52.194;21.006;2023-04-24T03:38:10;16.55;;;9.10;;
22223;SDS011;11281;52.194;21.006;2023-04-24T03:42:12;14.07;;;8.55;;
22223;SDS011;11281;52.194;21.006;2023-04-24T03:46:14;13.18;;;8.82;;
22223;SDS011;11281;52.194;21.006;2023-04-24T03:50:16;14.38;;;8.80;;
22223;SDS011;11281;52.194;21.006;2023-04-24T03:54:18;14.52;;;7.90;;
22223;SDS011;11281;52.194;21.006;2023-04-24T03:58:20;17.73;;;9.45;;
22223;SDS011;11281;52.194;21.006;2023-04-24T04:02:22;13.85;;;9.45;;
22223;SDS011;11281;52.194;21.006;2023-04-24T04:06:23;18.20;;;8.80;;
22223;SDS011;11281;52.194;21.006;2023-04-24T04:10:25;14.00;;;8.43;;
22223;SDS011;11281;52.194;21.006;2023-04-24T04:14:27;13.48;;;7.70;;
22223;SDS011;11281;52.194;21.006;2023-04-24T04:18:29;14.57;;;8.20;;
22223;SDS011;11281;52.194;21.006;2023-04-24T04:22:31;13.40;;;7.05;;
22223;SDS011;11281;52.194;21.006;2023-04-24T04:26:33;11.48;;;7.80;;
22223;SDS011;11281;52.194;21.006;2023-04-24T04:30:36;10.40;;;7.75;;
22223;SDS011;11281;52.194;21.006;2023-04-24T04:34:38;11.63;;;7.82;;
22223;SDS011;11281;52.194;21.006;2023-04-24T04:38:40;12.10;;;7.18;;
22223;SDS011;11281;52.194;21.006;2023-04-24T04:42:43;13.30;;;7.72;;
22223;SDS011;11281;52.194;21.006;2023-04-24T04:46:47;9.73;;;7.53;;
22223;SDS011;11281;52.194;21.006;2023-04-24T04:50:49;13.55;;;7.45;;
22223;SDS011;11281;52.194;21.006;2023-04-24T04:54:51;13.98;;;7.97;;
22223;SDS011;11281;52.194;21.006;2023-04-24T04:58:53;11.07;;;7.00;;
22223;SDS011;11281;52.194;21.006;2023-04-24T05:02:54;12.48;;;7.10;;
22223;SDS011;11281;52.194;21.006;2023-04-24T05:06:56;13.52;;;7.30;;
22223;SDS011;11281;52.194;21.006;2023-04-24T05:10:57;13.00;;;7.15;;
22223;SDS011;11281;52.194;21.006;2023-04-24T05:14:59;10.70;;;6.97;;
22223;SDS011;11281;52.194;21.006;2023-04-24T05:19:01;10.88;;;7.30;;
22223;SDS011;11281;52.194;21.006;2023-04-24T05:23:03;12.82;;;7.22;;
22223;SDS011;11281;52.194;21.006;2023-04-24T05:27:04;12.27;;;7.40;;
22223;SDS011;11281;52.194;21.006;2023-04-24T05:31:06;11.30;;;7.60;;
22223;SDS011;11281;52.194;21.006;2023-04-24T05:35:08;12.75;;;7.25;;
22223;SDS011;11281;52.194;21.006;2023-04-24T05:39:10;12.77;;;7.68;;
22223;SDS011;11281;52.194;21.006;2023-04-24T05:43:12;11.95;;;7.40;;
22223;SDS011;11281;52.194;21.006;2023-04-24T05:47:14;11.32;;;7.18;;
22223;SDS011;11281;52.194;21.006;2023-04-24T05:51:16;11.25;;;7.28;;
22223;SDS011;11281;52.194;21.006;2023-04-24T05:55:18;14.60;;;6.63;;
22223;SDS011;11281;52.194;21.006;2023-04-24T05:59:20;10.57;;;7.18;;
22223;SDS011;11281;52.194;21.006;2023-04-24T06:03:22;12.93;;;7.05;;
22223;SDS011;11281;52.194;21.006;2023-04-24T06:07:23;12.68;;;6.97;;
22223;SDS011;11281;52.194;21.006;2023-04-24T06:11:26;11.05;;;6.43;;
22223;SDS011;11281;52.194;21.006;2023-04-24T06:15:29;7.45;;;6.05;;
22223;SDS011;11281;52.194;21.006;2023-04-24T06:19:34;9.27;;;6.28;;
22223;SDS011;11281;52.194;21.006;2023-04-24T06:23:35;11.35;;;6.10;;
22223;SDS011;11281;52.194;21.006;2023-04-24T06:27:37;10.48;;;6.60;;
22223;SDS011;11281;52.194;21.006;2023-04-24T06:31:39;10.25;;;6.25;;
22223;SDS011;11281;52.194;21.006;2023-04-24T06:35:41;13.13;;;6.47;;
22223;SDS011;11281;52.194;21.006;2023-04-24T06:39:43;11.07;;;6.30;;
22223;SDS011;11281;52.194;21.006;2023-04-24T06:43:45;7.68;;;5.50;;
22223;SDS011;11281;52.194;21.006;2023-04-24T06:47:47;10.70;;;6.07;;
22223;SDS011;11281;52.194;21.006;2023-04-24T06:51:49;8.15;;;5.07;;
22223;SDS011;11281;52.194;21.006;2023-04-24T06:55:51;8.43;;;5.75;;
22223;SDS011;11281;52.194;21.006;2023-04-24T06:59:53;8.70;;;5.90;;
22223;SDS011;11281;52.194;21.006;2023-04-24T07:03:55;9.05;;;5.28;;
22223;SDS011;11281;52.194;21.006;2023-04-24T07:07:56;11.90;;;6.43;;
22223;SDS011;11281;52.194;21.006;2023-04-24T07:11:58;12.02;;;5.60;;
22223;SDS011;11281;52.194;21.006;2023-04-24T07:16:00;8.23;;;5.70;;
22223;SDS011;11281;52.194;21.006;2023-04-24T07:20:02;7.90;;;5.35;;
22223;SDS011;11281;52.194;21.006;2023-04-24T07:24:04;8.27;;;5.13;;
22223;SDS011;11281;52.194;21.006;2023-04-24T07:28:10;11.07;;;5.47;;
22223;SDS011;11281;52.194;21.006;2023-04-24T07:32:12;7.78;;;5.43;;
22223;SDS011;11281;52.194;21.006;2023-04-24T07:36:14;6.60;;;5.38;;
22223;SDS011;11281;52.194;21.006;2023-04-24T07:40:20;9.38;;;5.75;;
22223;SDS011;11281;52.194;21.006;2023-04-24T07:44:22;9.40;;;5.40;;
22223;SDS011;11281;52.194;21.006;2023-04-24T07:48:24;8.95;;;5.00;;
22223;SDS011;11281;52.194;21.006;2023-04-24T07:52:26;8.77;;;5.38;;
22223;SDS011;11281;52.194;21.006;2023-04-24T07:56:28;10.32;;;6.40;;
22223;SDS011;11281;52.194;21.006;2023-04-24T08:00:32;8.15;;;5.03;;
22223;SDS011;11281;52.194;21.006;2023-04-24T08:04:34;10.65;;;5.13;;
22223;SDS011;11281;52.194;21.006;2023-04-24T08:08:35;13.95;;;5.40;;
22223;SDS011;11281;52.194;21.006;2023-04-24T08:12:37;7.13;;;4.85;;
22223;SDS011;11281;52.194;21.006;2023-04-24T08:16:39;8.77;;;5.40;;
22223;SDS011;11281;52.194;21.006;2023-04-24T08:20:41;9.55;;;5.93;;
22223;SDS011;11281;52.194;21.006;2023-04-24T08:24:43;7.05;;;4.82;;
22223;SDS011;11281;52.194;21.006;2023-04-24T08:28:45;8.32;;;5.22;;
22223;SDS011;11281;52.194;21.006;2023-04-24T08:32:47;6.97;;;5.10;;
22223;SDS011;11281;52.194;21.006;2023-04-24T08:36:49;8.55;;;5.85;;
22223;SDS011;11281;52.194;21.006;2023-04-24T08:40:51;12.25;;;5.78;;
22223;SDS011;11281;52.194;21.006;2023-04-24T08:44:53;8.95;;;4.97;;
22223;SDS011;11281;52.194;21.006;2023-04-24T08:48:56;8.05;;;5.15;;
22223;SDS011;11281;52.194;21.006;2023-04-24T08:53:00;9.70;;;5.43;;
22223;SDS011;11281;52.194;21.006;2023-04-24T08:57:02;11.13;;;5.20;;
22223;SDS011;11281;52.194;21.006;2023-04-24T09:01:05;8.63;;;5.30;;
22223;SDS011;11281;52.194;21.006;2023-04-24T09:05:07;10.57;;;5.53;;
22223;SDS011;11281;52.194;21.006;2023-04-24T09:09:09;9.48;;;5.35;;
22223;SDS011;11281;52.194;21.006;2023-04-24T09:13:13;8.75;;;4.90;;
22223;SDS011;11281;52.194;21.006;2023-04-24T09:17:15;9.70;;;5.57;;
22223;SDS011;11281;52.194;21.006;2023-04-24T09:21:16;8.98;;;5.07;;
22223;SDS011;11281;52.194;21.006;2023-04-24T09:25:18;12.48;;;5.03;;
22223;SDS011;11281;52.194;21.006;2023-04-24T09:29:21;8.30;;;5.47;;
22223;SDS011;11281;52.194;21.006;2023-04-24T09:33:22;11.68;;;5.65;;
22223;SDS011;11281;52.194;21.006;2023-04-24T09:37:28;7.80;;;4.65;;
22223;SDS011;11281;52.194;21.006;2023-04-24T09:41:31;8.35;;;5.00;;
22223;SDS011;11281;52.194;21.006;2023-04-24T09:45:37;9.48;;;5.05;;
22223;SDS011;11281;52.194;21.006;2023-04-24T09:49:40;11.20;;;4.57;;
22223;SDS011;11281;52.194;21.006;2023-04-24T09:53:45;8.35;;;4.45;;
22223;SDS011;11281;52.194;21.006;2023-04-24T09:57:58;7.82;;;4.95;;
22223;SDS011;11281;52.194;21.006;2023-04-24T10:02:00;6.95;;;4.00;;
22223;SDS011;11281;52.194;21.006;2023-04-24T10:06:03;7.35;;;5.00;;
22223;SDS011;11281;52.194;21.006;2023-04-24T10:10:09;6.22;;;4.13;;
22223;SDS011;11281;52.194;21.006;2023-04-24T10:14:15;8.65;;;4.95;;
22223;SDS011;11281;52.194;21.006;2023-04-24T10:18:20;7.18;;;4.63;;
22223;SDS011;11281;52.194;21.006;2023-04-24T10:22:22;7.43;;;4.13;;
22223;SDS011;11281;52.194;21.006;2023-04-24T10:26:24;6.43;;;3.75;;
22223;SDS011;11281;52.194;21.006;2023-04-24T10:30:28;6.43;;;3.55;;
22223;SDS011;11281;52.194;21.006;2023-04-24T10:38:38;7.30;;;4.10;;
22223;SDS011;11281;52.194;21.006;2023-04-24T10:42:42;5.55;;;4.22;;
22223;SDS011;11281;52.194;21.006;2023-04-24T10:46:52;8.25;;;4.03;;
22223;SDS011;11281;52.194;21.006;2023-04-24T10:50:56;7.20;;;4.25;;
22223;SDS011;11281;52.194;21.006;2023-04-24T10:54:59;6.50;;;3.60;;
22223;SDS011;11281;52.194;21.006;2023-04-24T10:59:04;7.82;;;3.95;;
22223;SDS011;11281;52.194;21.006;2023-04-24T11:03:23;5.97;;;4.00;;
22223;SDS011;11281;52.194;21.006;2023-04-24T11:07:42;6.95;;;4.43;;
22223;SDS011;11281;52.194;21.006;2023-04-24T11:12:12;4.68;;;3.60;;
22223;SDS011;11281;52.194;21.006;2023-04-24T11:16:16;4.53;;;3.47;;
22223;SDS011;11281;52.194;21.006;2023-04-24T11:20:35;5.13;;;3.60;;
22223;SDS011;11281;52.194;21.006;2023-04-24T11:24:38;5.03;;;3.08;;
22223;SDS011;11281;52.194;21.006;2023-04-24T11:28:50;3.58;;;2.92;;
22223;SDS011;11281;52.194;21.006;2023-04-24T11:32:51;3.38;;;2.33;;
22223;SDS011;11281;52.194;21.006;2023-04-24T11:36:53;5.18;;;2.88;;
22223;SDS011;11281;52.194;21.006;2023-04-24T11:40:55;4.03;;;2.65;;
22223;SDS011;11281;52.194;21.006;2023-04-24T11:44:57;3.65;;;2.60;;
22223;SDS011;11281;52.194;21.006;2023-04-24T11:49:00;3.20;;;2.80;;
22223;SDS011;11281;52.194;21.006;2023-04-24T11:53:02;5.03;;;2.58;;
22223;SDS011;11281;52.194;21.006;2023-04-24T11:57:05;3.80;;;2.40;;
22223;SDS011;11281;52.194;21.006;2023-04-24T12:01:07;2.95;;;2.53;;
22223;SDS011;11281;52.194;21.006;2023-04-24T12:05:09;2.83;;;2.58;;
22223;SDS011;11281;52.194;21.006;2023-04-24T12:09:25;3.22;;;2.55;;
22223;SDS011;11281;52.194;21.006;2023-04-24T12:13:27;4.43;;;3.28;;
22223;SDS011;11281;52.194;21.006;2023-04-24T12:17:30;4.43;;;3.50;;
22223;SDS011;11281;52.194;21.006;2023-04-24T12:21:34;3.97;;;3.13;;
22223;SDS011;11281;52.194;21.006;2023-04-24T12:25:35;3.38;;;2.70;;
22223;SDS011;11281;52.194;21.006;2023-04-24T12:29:50;4.45;;;3.28;;
22223;SDS011;11281;52.194;21.006;2023-04-24T12:34:03;8.15;;;2.70;;
22223;SDS011;11281;52.194;21.006;2023-04-24T12:38:08;4.60;;;3.40;;
22223;SDS011;11281;52.194;21.006;2023-04-24T12:42:13;8.90;;;2.70;;
22223;SDS011;11281;52.194;21.006;2023-04-24T12:46:14;4.70;;;2.53;;
22223;SDS011;11281;52.194;21.006;2023-04-24T12:50:16;5.55;;;2.85;;
22223;SDS011;11281;52.194;21.006;2023-04-24T12:54:17;6.97;;;2.97;;
22223;SDS011;11281;52.194;21.006;2023-04-24T12:58:20;7.60;;;3.90;;
22223;SDS011;11281;52.194;21.006;2023-04-24T13:02:22;5.82;;;3.00;;
22223;SDS011;11281;52.194;21.006;2023-04-24T13:06:25;4.38;;;2.80;;
22223;SDS011;11281;52.194;21.006;2023-04-24T13:10:27;5.43;;;2.90;;
22223;SDS011;11281;52.194;21.006;2023-04-24T13:14:29;3.95;;;2.50;;
22223;SDS011;11281;52.194;21.006;2023-04-24T13:18:31;3.25;;;2.75;;
22223;SDS011;11281;52.194;21.006;2023-04-24T13:22:34;4.22;;;2.88;;
22223;SDS011;11281;52.194;21.006;2023-04-24T13:26:37;4.13;;;2.67;;
22223;SDS011;11281;52.194;21.006;2023-04-24T13:30:39;4.70;;;2.40;;
22223;SDS011;11281;52.194;21.006;2023-04-24T13:34:42;5.13;;;2.88;;
22223;SDS011;11281;52.194;21.006;2023-04-24T13:38:44;6.43;;;3.47;;
22223;SDS011;11281;52.194;21.006;2023-04-24T13:42:45;5.50;;;3.05;;
22223;SDS011;11281;52.194;21.006;2023-04-24T13:46:48;3.50;;;2.58;;
22223;SDS011;11281;52.194;21.006;2023-04-24T13:50:53;5.20;;;3.00;;
22223;SDS011;11281;52.194;21.006;2023-04-24T13:54:55;5.55;;;2.78;;
22223;SDS011;11281;52.194;21.006;2023-04-24T13:58:57;3.92;;;3.08;;
22223;SDS011;11281;52.194;21.006;2023-04-24T14:02:59;3.22;;;2.92;;
22223;SDS011;11281;52.194;21.006;2023-04-24T14:07:01;3.30;;;3.00;;
22223;SDS011;11281;52.194;21.006;2023-04-24T14:11:03;3.10;;;2.78;;
22223;SDS011;11281;52.194;21.006;2023-04-24T14:15:05;3.63;;;2.35;;
22223;SDS011;11281;52.194;21.006;2023-04-24T14:19:07;3.20;;;2.53;;
22223;SDS011;11281;52.194;21.006;2023-04-24T14:23:09;2.85;;;2.30;;
22223;SDS011;11281;52.194;21.006;2023-04-24T14:27:11;4.38;;;2.63;;
22223;SDS011;11281;52.194;21.006;2023-04-24T14:31:13;7.38;;;3.28;;
22223;SDS011;11281;52.194;21.006;2023-04-24T14:35:14;4.80;;;3.58;;
22223;SDS011;11281;52.194;21.006;2023-04-24T14:39:16;3.65;;;3.35;;
22223;SDS011;11281;52.194;21.006;2023-04-24T14:43:18;4.22;;;3.17;;
22223;SDS011;11281;52.194;21.006;2023-04-24T14:47:20;4.10;;;2.95;;
22223;SDS011;11281;52.194;21.006;2023-04-24T14:51:22;5.15;;;3.65;;
22223;SDS011;11281;52.194;21.006;2023-04-24T14:55:24;4.30;;;3.25;;
22223;SDS011;11281;52.194;21.006;2023-04-24T14:59:27;8.88;;;3.80;;
22223;SDS011;11281;52.194;21.006;2023-04-24T15:03:30;4.07;;;3.58;;
22223;SDS011;11281;52.194;21.006;2023-04-24T15:07:31;4.78;;;3.83;;
22223;SDS011;11281;52.194;21.006;2023-04-24T15:11:33;8.57;;;4.28;;
22223;SDS011;11281;52.194;21.006;2023-04-24T15:15:35;4.75;;;3.38;;
22223;SDS011;11281;52.194;21.006;2023-04-24T15:19:37;8.95;;;5.05;;
22223;SDS011;11281;52.194;21.006;2023-04-24T15:23:39;6.90;;;5.20;;
22223;SDS011;11281;52.194;21.006;2023-04-24T15:27:45;7.60;;;5.10;;
22223;SDS011;11281;52.194;21.006;2023-04-24T15:31:46;8.35;;;4.97;;
22223;SDS011;11281;52.194;21.006;2023-04-24T15:35:48;5.88;;;4.38;;
22223;SDS011;11281;52.194;21.006;2023-04-24T15:39:50;5.07;;;3.80;;
22223;SDS011;11281;52.194;21.006;2023-04-24T15:43:52;5.93;;;3.40;;
22223;SDS011;11281;52.194;21.006;2023-04-24T15:47:53;12.40;;;8.43;;
22223;SDS011;11281;52.194;21.006;2023-04-24T15:51:55;8.20;;;5.32;;
22223;SDS011;11281;52.194;21.006;2023-04-24T15:55:56;8.20;;;5.38;;
22223;SDS011;11281;52.194;21.006;2023-04-24T15:59:58;7.30;;;4.45;;
22223;SDS011;11281;52.194;21.006;2023-04-24T16:04:00;4.30;;;3.70;;
22223;SDS011;11281;52.194;21.006;2023-04-24T16:08:02;5.57;;;4.05;;
22223;SDS011;11281;52.194;21.006;2023-04-24T16:12:04;3.55;;;3.25;;
22223;SDS011;11281;52.194;21.006;2023-04-24T16:16:06;6.82;;;3.67;;
22223;SDS011;11281;52.194;21.006;2023-04-24T16:20:08;4.28;;;3.47;;
22223;SDS011;11281;52.194;21.006;2023-04-24T16:24:11;3.33;;;3.03;;
22223;SDS011;11281;52.194;21.006;2023-04-24T16:28:12;5.68;;;3.35;;
22223;SDS011;11281;52.194;21.006;2023-04-24T16:32:15;3.92;;;2.83;;
22223;SDS011;11281;52.194;21.006;2023-04-24T16:36:16;3.28;;;2.97;;
22223;SDS011;11281;52.194;21.006;2023-04-24T16:40:18;4.10;;;3.20;;
22223;SDS011;11281;52.194;21.006;2023-04-24T16:44:20;4.63;;;3.42;;
22223;SDS011;11281;52.194;21.006;2023-04-24T16:48:22;3.80;;;3.05;;
22223;SDS011;11281;52.194;21.006;2023-04-24T16:52:24;5.88;;;4.07;;
22223;SDS011;11281;52.194;21.006;2023-04-24T16:56:26;4.90;;;3.20;;
22223;SDS011;11281;52.194;21.006;2023-04-24T17:00:27;3.35;;;3.03;;
22223;SDS011;11281;52.194;21.006;2023-04-24T17:04:29;5.28;;;3.70;;
22223;SDS011;11281;52.194;21.006;2023-04-24T17:08:32;4.90;;;3.65;;
22223;SDS011;11281;52.194;21.006;2023-04-24T17:12:34;6.35;;;3.95;;
22223;SDS011;11281;52.194;21.006;2023-04-24T17:16:36;5.63;;;3.75;;
22223;SDS011;11281;52.194;21.006;2023-04-24T17:20:40;6.22;;;4.38;;
22223;SDS011;11281;52.194;21.006;2023-04-24T17:24:41;5.75;;;4.10;;
22223;SDS011;11281;52.194;21.006;2023-04-24T17:28:43;5.90;;;3.85;;
22223;SDS011;11281;52.194;21.006;2023-04-24T17:32:45;7.65;;;4.03;;
22223;SDS011;11281;52.194;21.006;2023-04-24T17:36:47;4.45;;;3.97;;
22223;SDS011;11281;52.194;21.006;2023-04-24T17:40:49;5.85;;;4.57;;
22223;SDS011;11281;52.194;21.006;2023-04-24T17:44:53;5.03;;;4.00;;
22223;SDS011;11281;52.194;21.006;2023-04-24T17:48:55;5.72;;;4.38;;
22223;SDS011;11281;52.194;21.006;2023-04-24T17:52:57;7.25;;;4.57;;
22223;SDS011;11281;52.194;21.006;2023-04-24T17:56:59;9.15;;;5.38;;
22223;SDS011;11281;52.194;21.006;2023-04-24T18:01:01;5.57;;;4.20;;
22223;SDS011;11281;52.194;21.006;2023-04-24T18:05:03;7.28;;;4.90;;
22223;SDS011;11281;52.194;21.006;2023-04-24T18:09:05;5.65;;;4.57;;
22223;SDS011;11281;52.194;21.006;2023-04-24T18:13:07;5.43;;;4.68;;
22223;SDS011;11281;52.194;21.006;2023-04-24T18:17:09;7.13;;;5.03;;
22223;SDS011;11281;52.194;21.006;2023-04-24T18:21:11;8.68;;;5.45;;
22223;SDS011;11281;52.194;21.006;2023-04-24T18:25:13;7.97;;;5.00;;
22223;SDS011;11281;52.194;21.006;2023-04-24T18:29:14;8.80;;;5.55;;
22223;SDS011;11281;52.194;21.006;2023-04-24T18:33:16;9.15;;;5.72;;
22223;SDS011;11281;52.194;21.006;2023-04-24T18:37:18;9.32;;;6.00;;
22223;SDS011;11281;52.194;21.006;2023-04-24T18:41:20;8.55;;;6.00;;
22223;SDS011;11281;52.194;21.006;2023-04-24T18:45:22;7.97;;;6.22;;
22223;SDS011;11281;52.194;21.006;2023-04-24T18:49:24;10.18;;;6.35;;
22223;SDS011;11281;52.194;21.006;2023-04-24T18:53:25;11.32;;;6.65;;
22223;SDS011;11281;52.194;21.006;2023-04-24T18:57:27;10.30;;;7.07;;
22223;SDS011;11281;52.194;21.006;2023-04-24T19:01:29;15.27;;;8.32;;
22223;SDS011;11281;52.194;21.006;2023-04-24T19:05:32;10.80;;;7.65;;
22223;SDS011;11281;52.194;21.006;2023-04-24T19:09:34;9.80;;;7.20;;
22223;SDS011;11281;52.194;21.006;2023-04-24T19:13:36;15.27;;;8.27;;
22223;SDS011;11281;52.194;21.006;2023-04-24T19:17:37;12.05;;;8.38;;
22223;SDS011;11281;52.194;21.006;2023-04-24T19:21:39;14.00;;;8.02;;
22223;SDS011;11281;52.194;21.006;2023-04-24T19:25:41;18.85;;;9.70;;
22223;SDS011;11281;52.194;21.006;2023-04-24T19:29:43;17.60;;;9.63;;
22223;SDS011;11281;52.194;21.006;2023-04-24T19:33:45;12.32;;;8.45;;
22223;SDS011;11281;52.194;21.006;2023-04-24T19:37:48;16.70;;;9.68;;
22223;SDS011;11281;52.194;21.006;2023-04-24T19:41:49;17.55;;;8.27;;
22223;SDS011;11281;52.194;21.006;2023-04-24T19:45:51;15.10;;;9.15;;
22223;SDS011;11281;52.194;21.006;2023-04-24T19:49:53;18.52;;;9.57;;
22223;SDS011;11281;52.194;21.006;2023-04-24T19:53:54;16.08;;;9.10;;
22223;SDS011;11281;52.194;21.006;2023-04-24T19:57:56;15.52;;;8.55;;
22223;SDS011;11281;52.194;21.006;2023-04-24T20:01:58;16.02;;;9.38;;
22223;SDS011;11281;52.194;21.006;2023-04-24T20:06:00;16.73;;;10.48;;
22223;SDS011;11281;52.194;21.006;2023-04-24T20:10:02;21.27;;;10.98;;
22223;SDS011;11281;52.194;21.006;2023-04-24T20:14:04;17.80;;;9.65;;
22223;SDS011;11281;52.194;21.006;2023-04-24T20:18:06;15.77;;;8.73;;
22223;SDS011;11281;52.194;21.006;2023-04-24T20:22:08;16.92;;;10.40;;
22223;SDS011;11281;52.194;21.006;2023-04-24T20:26:10;16.25;;;9.32;;
22223;SDS011;11281;52.194;21.006;2023-04-24T20:30:12;14.70;;;8.82;;
22223;SDS011;11281;52.194;21.006;2023-04-24T20:34:14;18.58;;;11.00;;
22223;SDS011;11281;52.194;21.006;2023-04-24T20:38:16;23.38;;;12.38;;
22223;SDS011;11281;52.194;21.006;2023-04-24T20:42:18;21.52;;;11.82;;
22223;SDS011;11281;52.194;21.006;2023-04-24T20:46:20;18.50;;;11.45;;
22223;SDS011;11281;52.194;21.006;2023-04-24T20:50:21;16.85;;;9.50;;
22223;SDS011;11281;52.194;21.006;2023-04-24T20:54:25;13.07;;;9.05;;
22223;SDS011;11281;52.194;21.006;2023-04-24T20:58:27;15.20;;;8.77;;
22223;SDS011;11281;52.194;21.006;2023-04-24T21:02:29;12.52;;;8.48;;
22223;SDS011;11281;52.194;21.006;2023-04-24T21:06:30;14.43;;;9.10;;
22223;SDS011;11281;52.194;21.006;2023-04-24T21:10:32;14.70;;;9.60;;
22223;SDS011;11281;52.194;21.006;2023-04-24T21:14:33;13.63;;;9.15;;
22223;SDS011;11281;52.194;21.006;2023-04-24T21:18:35;13.05;;;8.57;;
22223;SDS011;11281;52.194;21.006;2023-04-24T21:22:42;13.77;;;9.25;;
22223;SDS011;11281;52.194;21.006;2023-04-24T21:26:45;14.35;;;8.05;;
22223;SDS011;11281;52.194;21.006;2023-04-24T21:30:47;11.45;;;8.07;;
22223;SDS011;11281;52.194;21.006;2023-04-24T21:34:49;12.63;;;8.63;;
22223;SDS011;11281;52.194;21.006;2023-04-24T21:38:53;10.95;;;7.47;;
22223;SDS011;11281;52.194;21.006;2023-04-24T21:42:55;12.27;;;7.75;;
22223;SDS011;11281;52.194;21.006;2023-04-24T21:46:56;15.35;;;9.05;;
22223;SDS011;11281;52.194;21.006;2023-04-24T21:50:58;12.77;;;8.93;;
22223;SDS011;11281;52.194;21.006;2023-04-24T21:55:00;14.90;;;8.82;;
22223;SDS011;11281;52.194;21.006;2023-04-24T21:59:02;14.95;;;9.15;;
22223;SDS011;11281;52.194;21.006;2023-04-24T22:03:04;14.73;;;9.95;;
22223;SDS011;11281;52.194;21.006;2023-04-24T22:07:06;16.10;;;9.85;;
22223;SDS011;11281;52.194;21.006;2023-04-24T22:11:08;14.55;;;9.98;;
22223;SDS011;11281;52.194;21.006;2023-04-24T22:15:11;15.73;;;10.00;;
22223;SDS011;11281;52.194;21.006;2023-04-24T22:19:13;17.88;;;10.88;;
22223;SDS011;11281;52.194;21.006;2023-04-24T22:23:14;15.43;;;11.35;;
22223;SDS011;11281;52.194;21.006;2023-04-24T22:27:16;21.30;;;11.27;;
22223;SDS011;11281;52.194;21.006;2023-04-24T22:31:18;17.45;;;9.80;;
22223;SDS011;11281;52.194;21.006;2023-04-24T22:35:19;16.63;;;11.10;;
22223;SDS011;11281;52.194;21.006;2023-04-24T22:39:21;16.88;;;11.32;;
22223;SDS011;11281;52.194;21.006;2023-04-24T22:43:23;15.85;;;10.77;;
22223;SDS011;11281;52.194;21.006;2023-04-24T22:47:26;15.98;;;11.15;;
22223;SDS011;11281;52.194;21.006;2023-04-24T22:51:27;17.60;;;10.10;;
22223;SDS011;11281;52.194;21.006;2023-04-24T22:55:32;16.50;;;11.02;;
22223;SDS011;11281;52.194;21.006;2023-04-24T22:59:35;16.27;;;9.68;;
22223;SDS011;11281;52.194;21.006;2023-04-24T23:03:37;16.15;;;10.30;;
22223;SDS011;11281;52.194;21.006;2023-04-24T23:07:42;15.07;;;9.93;;
22223;SDS011;11281;52.194;21.006;2023-04-24T23:11:43;16.85;;;10.43;;
22223;SDS011;11281;52.194;21.006;2023-04-24T23:15:45;15.57;;;10.65;;
22223;SDS011;11281;52.194;21.006;2023-04-24T23:19:46;17.70;;;11.38;;
22223;SDS011;11281;52.194;21.006;2023-04-24T23:23:48;17.25;;;9.75;;
22223;SDS011;11281;52.194;21.006;2023-04-24T23:27:51;15.52;;;10.82;;
22223;SDS011;11281;52.194;21.006;2023-04-24T23:31:53;17.00;;;10.50;;
22223;SDS011;11281;52.194;21.006;2023-04-24T23:35:55;15.18;;;10.60;;
22223;SDS011;11281;52.194;21.006;2023-04-24T23:39:57;15.43;;;9.85;;
22223;SDS011;11281;52.194;21.006;2023-04-24T23:43:59;14.43;;;9.68;;
22223;SDS011;11281;52.194;21.006;2023-04-24T23:48:01;19.13;;;10.35;;
22223;SDS011;11281;52.194;21.006;2023-04-24T23:52:03;15.23;;;10.05;;